Hurshtown, Indiana
Current Conditions -  °F | °C
As of 4:15 PM on Sunday 23 Nov 2014 (Local Time) from KGWB Reporting Station
Heavy Rain Heavy Rain  
Wind Chill: 52°   Ceiling: 2100
Heat Index: 52°   Visibility: 2mi
Dew Point: 48°   Wind: 3mph
Humidity: 88%   Direction: 140°SE
Pressure: 29.62"   Gusts: NA
Location:  41.268°N, 84.9156°W
Report Text: KGWB 232115Z AUTO 14003KT 2SM +RA SCT014 OVC021 11/09 A2962 RMK AO2 P0009
Loading
Personal Weather Stations






























Interactive Weather Map New forecast layout! Learn more

10-Day Weather Forecast

Advertisements
Track Severe Weather on mobile